Time;durP1;ratioP1;P1;durP2;ratioP2;P2;SDS_P1;SDS_P2;PMS_P1;PMS_P2;Temp;Humidity;BMP_temperature;BMP_pressure;BME280_temperature;BME280_humidity;BME280_pressure;Samples;Min_cycle;Max_cycle;Signal;HPM_P1;HPM_P2
2021/03/10 00:03:43;;;;;;;59.97;19.52;;;;;;;;;;8324479;28;20473;-77
2021/03/10 00:08:01;;;;;;;56.15;20.45;;;;;;;;;;8325689;28;20483;-76
2021/03/10 00:12:06;;;;;;;50.35;19.05;;;;;;;;;;8324196;28;20450;-76
2021/03/10 00:16:11;;;;;;;53.45;19.25;;;;;;;;;;8324214;28;20466;-76
2021/03/10 00:20:17;;;;;;;53.20;19.77;;;;;;;;;;8326623;28;20070;-76
2021/03/10 00:24:22;;;;;;;46.38;18.75;;;;;;;;;;8323232;28;20366;-76
2021/03/10 00:28:26;;;;;;;53.08;18.30;;;;;;;;;;8327113;28;20508;-76
2021/03/10 00:32:31;;;;;;;45.38;17.85;;;;;;;;;;8324270;28;20374;-76
2021/03/10 00:36:36;;;;;;;47.28;18.13;;;;;;;;;;8324539;28;20454;-76
2021/03/10 00:40:40;;;;;;;47.22;17.80;;;;;;;;;;8324713;28;20465;-76
2021/03/10 00:44:45;;;;;;;47.03;16.35;;;;;;;;;;8324553;28;20370;-78
2021/03/10 00:48:53;;;;;;;42.45;17.60;;;;;;;;;;8340351;28;20476;-78
2021/03/10 00:52:58;;;;;;;42.42;16.55;;;;;;;;;;8324331;28;20362;-77
2021/03/10 00:57:07;;;;;;;51.80;18.52;;;;;;;;;;8339218;28;20362;-77
2021/03/10 01:01:17;;;;;;;48.55;18.60;;;;;;;;;;8322042;28;20056;-77
2021/03/10 01:05:22;;;;;;;50.00;17.15;;;;;;;;;;8325997;28;20439;-76
2021/03/10 01:09:30;;;;;;;39.50;15.48;;;;;;;;;;8323330;28;20331;-77
2021/03/10 01:13:34;;;;;;;53.90;18.15;;;;;;;;;;8320991;28;20474;-76
2021/03/10 01:17:39;;;;;;;45.90;18.13;;;;;;;;;;8323572;28;20378;-77
2021/03/10 01:21:44;;;;;;;45.42;16.23;;;;;;;;;;8325035;28;20359;-77
2021/03/10 01:25:48;;;;;;;41.05;16.48;;;;;;;;;;8323142;28;20462;-76
2021/03/10 01:29:52;;;;;;;42.15;16.80;;;;;;;;;;8324294;28;20565;-77
2021/03/10 01:33:57;;;;;;;44.30;17.92;;;;;;;;;;8323191;28;20475;-77
2021/03/10 01:38:01;;;;;;;39.65;15.80;;;;;;;;;;8324262;28;20450;-77
2021/03/10 01:42:06;;;;;;;39.58;15.85;;;;;;;;;;8324637;28;20473;-77
2021/03/10 01:46:11;;;;;;;38.50;16.00;;;;;;;;;;8323688;28;20396;-76
2021/03/10 01:50:19;;;;;;;38.45;16.58;;;;;;;;;;8324004;28;20477;-77
2021/03/10 01:54:23;;;;;;;43.22;16.20;;;;;;;;;;8323419;28;20355;-76
2021/03/10 01:58:28;;;;;;;38.63;16.52;;;;;;;;;;8322675;28;20052;-77
2021/03/10 02:02:32;;;;;;;42.05;16.02;;;;;;;;;;8323332;28;20473;-77
2021/03/10 02:07:02;;;;;;;56.30;16.85;;;;;;;;;;8320962;28;20551;-77
2021/03/10 02:11:20;;;;;;;56.63;19.90;;;;;;;;;;8322273;28;20058;-78
2021/03/10 02:16:00;;;;;;;40.17;15.65;;;;;;;;;;8320912;28;20048;-77
2021/03/10 02:20:08;;;;;;;38.75;14.13;;;;;;;;;;8321386;28;20083;-77
2021/03/10 02:24:51;;;;;;;39.70;16.75;;;;;;;;;;8324123;28;20451;-77
2021/03/10 02:29:11;;;;;;;39.33;14.75;;;;;;;;;;8327874;28;20047;-77
2021/03/10 02:33:29;;;;;;;45.47;15.55;;;;;;;;;;8328486;28;20644;-76
2021/03/10 02:37:37;;;;;;;49.30;17.10;;;;;;;;;;8326491;28;20079;-77
2021/03/10 02:41:43;;;;;;;42.40;15.50;;;;;;;;;;8326379;28;20441;-77
2021/03/10 02:45:50;;;;;;;41.97;15.73;;;;;;;;;;8327760;28;20470;-77
2021/03/10 02:49:56;;;;;;;42.92;15.55;;;;;;;;;;8326135;28;20447;-77
2021/03/10 02:54:03;;;;;;;43.05;14.90;;;;;;;;;;8326218;28;20450;-77
2021/03/10 02:58:10;;;;;;;36.53;14.40;;;;;;;;;;8328250;28;20459;-76
2021/03/10 03:02:15;;;;;;;43.72;15.13;;;;;;;;;;8327850;28;20461;-77
2021/03/10 03:06:19;;;;;;;40.85;16.35;;;;;;;;;;8328022;28;20477;-78
2021/03/10 03:10:29;;;;;;;37.78;14.38;;;;;;;;;;8328433;28;20052;-77
2021/03/10 03:14:51;;;;;;;35.30;14.75;;;;;;;;;;8329626;28;20080;-77
2021/03/10 03:18:56;;;;;;;35.83;14.15;;;;;;;;;;8326023;28;20378;-77
2021/03/10 03:23:06;;;;;;;34.65;14.70;;;;;;;;;;8325120;28;20052;-77
2021/03/10 03:27:11;;;;;;;32.53;15.05;;;;;;;;;;8325916;28;20500;-77
2021/03/10 03:31:17;;;;;;;37.75;14.68;;;;;;;;;;8326461;28;20481;-76
2021/03/10 03:35:23;;;;;;;36.78;14.35;;;;;;;;;;8325695;28;20362;-77
2021/03/10 03:39:27;;;;;;;48.67;14.60;;;;;;;;;;8326267;28;20450;-77
2021/03/10 03:43:32;;;;;;;38.78;14.80;;;;;;;;;;8324269;28;20416;-77
2021/03/10 03:47:38;;;;;;;36.80;15.05;;;;;;;;;;8324944;28;20367;-77
2021/03/10 03:51:43;;;;;;;46.22;14.45;;;;;;;;;;8325998;28;20477;-77
2021/03/10 03:55:48;;;;;;;33.30;13.60;;;;;;;;;;8325996;28;20366;-77
2021/03/10 03:59:52;;;;;;;34.53;13.25;;;;;;;;;;8324846;28;20378;-78
2021/03/10 04:03:57;;;;;;;31.30;12.95;;;;;;;;;;8326423;28;20454;-76
2021/03/10 04:08:03;;;;;;;40.08;15.00;;;;;;;;;;8327044;28;20482;-78
2021/03/10 04:12:07;;;;;;;27.55;12.98;;;;;;;;;;8324662;28;20359;-77
2021/03/10 04:16:12;;;;;;;33.38;14.68;;;;;;;;;;8323903;28;20114;-77
2021/03/10 04:20:20;;;;;;;30.02;12.70;;;;;;;;;;8325748;28;20389;-77
2021/03/10 04:24:24;;;;;;;41.65;13.73;;;;;;;;;;8325077;28;20443;-77
2021/03/10 04:28:28;;;;;;;36.78;13.48;;;;;;;;;;8326936;28;20455;-77
2021/03/10 04:32:32;;;;;;;41.50;14.27;;;;;;;;;;8327235;28;20078;-77
2021/03/10 04:36:37;;;;;;;38.58;13.40;;;;;;;;;;8324496;28;20496;-77
2021/03/10 04:40:41;;;;;;;34.63;14.80;;;;;;;;;;8325049;28;20473;-77
2021/03/10 04:44:45;;;;;;;48.70;15.52;;;;;;;;;;8324578;28;20470;-77
2021/03/10 04:48:50;;;;;;;71.55;25.65;;;;;;;;;;8323356;28;20401;-77
2021/03/10 04:52:55;;;;;;;60.58;27.63;;;;;;;;;;8324612;28;20070;-77
2021/03/10 04:57:00;;;;;;;107.78;44.40;;;;;;;;;;8323518;28;20524;-77
2021/03/10 05:01:04;;;;;;;81.05;30.83;;;;;;;;;;8322782;28;20399;-77
2021/03/10 05:05:13;;;;;;;52.05;20.63;;;;;;;;;;8326312;28;20473;-77
2021/03/10 05:09:20;;;;;;;151.63;52.67;;;;;;;;;;8324254;28;20474;-78
2021/03/10 05:13:24;;;;;;;70.93;25.95;;;;;;;;;;8320531;28;20451;-77
2021/03/10 05:17:28;;;;;;;52.63;17.83;;;;;;;;;;8323587;28;20074;-76
2021/03/10 05:21:32;;;;;;;45.88;17.95;;;;;;;;;;8321285;28;20060;-78
2021/03/10 05:25:37;;;;;;;61.65;26.95;;;;;;;;;;8323032;28;20051;-77
2021/03/10 05:29:42;;;;;;;64.82;25.95;;;;;;;;;;8322538;28;20492;-77
2021/03/10 05:33:47;;;;;;;233.55;69.63;;;;;;;;;;8323483;28;20052;-77
2021/03/10 05:37:51;;;;;;;194.60;65.88;;;;;;;;;;8322929;28;20473;-77
2021/03/10 05:41:59;;;;;;;208.45;68.45;;;;;;;;;;8322349;28;20447;-77
2021/03/10 05:46:03;;;;;;;180.77;57.07;;;;;;;;;;8323208;28;20348;-77
2021/03/10 05:50:09;;;;;;;183.38;57.88;;;;;;;;;;8324114;28;20074;-77
2021/03/10 05:54:14;;;;;;;130.23;44.13;;;;;;;;;;8322870;28;20048;-77
2021/03/10 05:58:18;;;;;;;52.80;21.70;;;;;;;;;;8321834;28;20056;-77
2021/03/10 06:02:23;;;;;;;46.33;19.38;;;;;;;;;;8327549;28;20138;-77
2021/03/10 06:06:39;;;;;;;62.05;21.55;;;;;;;;;;8327761;28;20087;-76
2021/03/10 06:10:49;;;;;;;47.13;19.63;;;;;;;;;;8329403;28;20497;-76
2021/03/10 06:15:01;;;;;;;49.03;20.02;;;;;;;;;;8328373;28;20446;-77
2021/03/10 06:19:06;;;;;;;44.10;18.45;;;;;;;;;;8311147;28;20362;-77
2021/03/10 06:23:15;;;;;;;58.00;23.30;;;;;;;;;;8328565;28;20461;-77
2021/03/10 06:27:23;;;;;;;59.85;24.08;;;;;;;;;;8327947;28;20070;-77
2021/03/10 06:31:34;;;;;;;65.35;24.13;;;;;;;;;;8328220;28;20470;-76
2021/03/10 06:35:42;;;;;;;61.30;21.63;;;;;;;;;;8326238;28;20466;-77
2021/03/10 06:39:47;;;;;;;58.13;22.15;;;;;;;;;;8327002;28;20388;-77
2021/03/10 06:43:52;;;;;;;64.07;26.27;;;;;;;;;;8329544;28;20450;-77
2021/03/10 06:47:56;;;;;;;65.55;24.00;;;;;;;;;;8327531;28;20348;-77
2021/03/10 06:52:10;;;;;;;50.20;21.02;;;;;;;;;;8325674;28;20408;-78
2021/03/10 06:56:21;;;;;;;49.75;19.98;;;;;;;;;;8327533;28;20455;-77
2021/03/10 07:00:27;;;;;;;53.55;21.55;;;;;;;;;;8327560;28;20476;-78
2021/03/10 07:04:33;;;;;;;51.38;21.75;;;;;;;;;;8331188;28;20480;-77
2021/03/10 07:08:38;;;;;;;57.10;21.02;;;;;;;;;;8310687;28;20378;-77
2021/03/10 07:12:44;;;;;;;44.30;18.58;;;;;;;;;;8325481;28;20454;-77
2021/03/10 07:16:48;;;;;;;48.78;20.58;;;;;;;;;;8327953;28;20492;-78
2021/03/10 07:20:56;;;;;;;46.20;18.58;;;;;;;;;;8328542;28;20447;-78
2021/03/10 07:25:21;;;;;;;42.10;18.25;;;;;;;;;;8327463;28;20477;-78
2021/03/10 07:29:25;;;;;;;36.25;16.48;;;;;;;;;;8328836;28;20075;-77
2021/03/10 07:33:30;;;;;;;32.92;15.88;;;;;;;;;;8332490;28;20366;-79
2021/03/10 07:37:39;;;;;;;35.72;17.45;;;;;;;;;;8339936;28;20375;-78
2021/03/10 07:41:44;;;;;;;38.72;15.65;;;;;;;;;;8339737;28;20054;-78
2021/03/10 07:45:48;;;;;;;38.55;16.77;;;;;;;;;;8335881;28;20059;-79
2021/03/10 07:50:01;;;;;;;36.90;17.15;;;;;;;;;;8340152;28;20336;-78
2021/03/10 07:54:25;;;;;;;31.25;14.85;;;;;;;;;;8333714;28;21370;-77
2021/03/10 07:58:31;;;;;;;29.67;14.00;;;;;;;;;;8332039;28;20427;-77
2021/03/10 08:02:44;;;;;;;22.90;9.02;;;;;;;;;;8332491;28;20466;-79
2021/03/10 08:06:52;;;;;;;19.92;8.85;;;;;;;;;;8327832;28;20070;-77
2021/03/10 08:11:16;;;;;;;16.52;7.45;;;;;;;;;;8327938;28;20052;-77
2021/03/10 08:15:22;;;;;;;14.02;6.63;;;;;;;;;;8326490;28;20366;-77
2021/03/10 08:19:27;;;;;;;10.90;5.72;;;;;;;;;;8325381;28;20056;-77
2021/03/10 08:23:31;;;;;;;9.60;4.25;;;;;;;;;;8308645;28;20451;-77
2021/03/10 08:27:39;;;;;;;8.65;4.45;;;;;;;;;;8325913;28;20048;-77
2021/03/10 08:31:54;;;;;;;11.45;4.97;;;;;;;;;;8327893;28;20469;-77
2021/03/10 08:35:58;;;;;;;11.93;5.30;;;;;;;;;;8329436;28;20082;-77
2021/03/10 08:40:23;;;;;;;30.13;15.45;;;;;;;;;;8329446;28;20052;-77
2021/03/10 08:44:28;;;;;;;176.18;84.68;;;;;;;;;;8330441;28;20381;-77
2021/03/10 08:48:35;;;;;;;14.73;7.13;;;;;;;;;;8326032;28;20358;-78
2021/03/10 08:52:45;;;;;;;20.45;9.20;;;;;;;;;;8327311;28;20797;-77
2021/03/10 08:56:50;;;;;;;102.00;41.67;;;;;;;;;;8325002;28;20485;-77
2021/03/10 09:00:56;;;;;;;15.48;7.80;;;;;;;;;;8322584;28;20470;-77
2021/03/10 09:05:04;;;;;;;14.25;7.05;;;;;;;;;;8323468;28;20363;-77
2021/03/10 09:09:11;;;;;;;45.15;19.85;;;;;;;;;;8340277;28;20470;-76
2021/03/10 09:13:30;;;;;;;55.60;17.65;;;;;;;;;;8308428;28;20401;-77
2021/03/10 09:17:36;;;;;;;131.52;36.78;;;;;;;;;;8309071;28;20466;-77
2021/03/10 09:21:45;;;;;;;18.98;8.13;;;;;;;;;;8324637;28;20358;-77
2021/03/10 09:25:59;;;;;;;15.25;6.68;;;;;;;;;;8324711;28;20470;-76
2021/03/10 09:30:29;;;;;;;30.80;11.80;;;;;;;;;;8322891;28;20052;-77
2021/03/10 09:34:34;;;;;;;281.58;88.78;;;;;;;;;;8324740;28;20450;-77
2021/03/10 09:38:45;;;;;;;17.58;7.75;;;;;;;;;;8322316;28;20087;-78
2021/03/10 09:43:02;;;;;;;13.35;6.60;;;;;;;;;;8323399;28;20048;-79
2021/03/10 09:47:24;;;;;;;17.20;8.48;;;;;;;;;;8323506;28;20110;-78
2021/03/10 09:51:48;;;;;;;11.45;6.03;;;;;;;;;;8310047;28;20485;-78
2021/03/10 09:56:10;;;;;;;11.18;5.38;;;;;;;;;;8327188;28;20502;-77
2021/03/10 10:00:21;;;;;;;11.63;6.30;;;;;;;;;;8336867;28;20447;-76
2021/03/10 10:04:29;;;;;;;9.20;5.20;;;;;;;;;;8333543;28;20842;-78
2021/03/10 10:08:38;;;;;;;14.57;5.93;;;;;;;;;;8335899;28;20481;-78
2021/03/10 10:12:49;;;;;;;16.60;6.30;;;;;;;;;;8311628;28;20052;-77
2021/03/10 10:16:59;;;;;;;22.88;7.57;;;;;;;;;;8333394;28;20064;-78
2021/03/10 10:21:07;;;;;;;14.77;7.03;;;;;;;;;;8346084;28;20370;-78
2021/03/10 10:25:16;;;;;;;7.05;4.28;;;;;;;;;;8341437;28;20443;-77
2021/03/10 10:29:23;;;;;;;6.70;4.00;;;;;;;;;;8343301;28;20340;-77
2021/03/10 10:33:28;;;;;;;6.07;3.92;;;;;;;;;;8333552;28;20458;-77
2021/03/10 10:37:33;;;;;;;8.90;4.63;;;;;;;;;;8346066;28;20485;-77
2021/03/10 10:41:41;;;;;;;8.20;4.47;;;;;;;;;;8360071;28;20048;-77
2021/03/10 10:45:46;;;;;;;10.35;5.10;;;;;;;;;;8349267;28;20348;-77
2021/03/10 10:49:55;;;;;;;7.43;4.03;;;;;;;;;;8343380;28;20048;-77
2021/03/10 10:54:01;;;;;;;8.57;4.03;;;;;;;;;;8365677;28;20462;-77
2021/03/10 10:58:06;;;;;;;13.60;6.00;;;;;;;;;;8376656;28;20055;-77
2021/03/10 11:02:15;;;;;;;8.40;4.78;;;;;;;;;;8368816;28;20054;-78
2021/03/10 11:06:26;;;;;;;11.65;5.70;;;;;;;;;;8361598;28;20484;-79
2021/03/10 11:10:30;;;;;;;21.77;10.20;;;;;;;;;;8360082;28;20461;-77
2021/03/10 11:14:40;;;;;;;9.70;5.22;;;;;;;;;;8345069;28;20451;-77
2021/03/10 11:18:54;;;;;;;21.70;9.77;;;;;;;;;;8344040;28;20044;-76
2021/03/10 11:22:59;;;;;;;25.55;8.40;;;;;;;;;;8359540;28;20060;-77
2021/03/10 11:27:07;;;;;;;17.02;7.93;;;;;;;;;;8357859;28;20055;-77
2021/03/10 11:31:14;;;;;;;8.20;5.47;;;;;;;;;;8367877;28;20052;-78
2021/03/10 11:35:23;;;;;;;13.15;5.80;;;;;;;;;;8354723;28;20044;-78
2021/03/10 11:39:31;;;;;;;16.00;6.63;;;;;;;;;;8363260;28;20470;-78
2021/03/10 11:43:36;;;;;;;14.88;5.97;;;;;;;;;;8347369;28;20446;-75
2021/03/10 11:47:47;;;;;;;10.98;5.88;;;;;;;;;;8325236;28;20466;-73
2021/03/10 11:51:51;;;;;;;16.02;7.07;;;;;;;;;;8329703;28;20760;-71
2021/03/10 11:55:56;;;;;;;9.32;5.40;;;;;;;;;;8326093;28;20435;-70
2021/03/10 12:00:00;;;;;;;23.85;7.45;;;;;;;;;;8327811;28;20359;-71
2021/03/10 12:04:15;;;;;;;15.10;7.35;;;;;;;;;;8326648;28;20462;-70
2021/03/10 12:08:26;;;;;;;14.00;6.78;;;;;;;;;;8323683;28;20382;-72
2021/03/10 12:12:32;;;;;;;16.48;8.05;;;;;;;;;;8326012;28;20409;-70
2021/03/10 12:16:41;;;;;;;8.80;6.28;;;;;;;;;;8327362;28;20479;-70
2021/03/10 12:20:48;;;;;;;21.00;8.23;;;;;;;;;;8326196;28;20394;-70
2021/03/10 12:24:52;;;;;;;11.48;6.60;;;;;;;;;;8327041;28;20581;-70
2021/03/10 12:28:57;;;;;;;14.60;6.20;;;;;;;;;;8327104;28;20074;-70
2021/03/10 12:33:01;;;;;;;15.38;9.60;;;;;;;;;;8328118;28;20371;-70
2021/03/10 12:37:06;;;;;;;31.73;19.88;;;;;;;;;;8324838;28;20482;-72
2021/03/10 12:41:10;;;;;;;38.47;15.73;;;;;;;;;;8327241;28;20436;-71
2021/03/10 12:45:16;;;;;;;16.00;8.98;;;;;;;;;;8326506;28;20450;-70
2021/03/10 12:49:20;;;;;;;16.88;9.35;;;;;;;;;;8326644;28;20047;-70
2021/03/10 12:53:25;;;;;;;18.13;6.90;;;;;;;;;;8328535;28;20111;-70
2021/03/10 12:57:29;;;;;;;13.55;6.85;;;;;;;;;;8324167;28;20056;-71
2021/03/10 13:01:34;;;;;;;13.45;6.57;;;;;;;;;;8325713;28;20412;-70
2021/03/10 13:05:39;;;;;;;16.02;7.30;;;;;;;;;;8324481;28;20462;-70
2021/03/10 13:09:44;;;;;;;17.60;7.68;;;;;;;;;;8322427;28;20055;-72
2021/03/10 13:13:49;;;;;;;16.73;7.90;;;;;;;;;;8325361;28;20390;-70
2021/03/10 13:17:53;;;;;;;16.92;8.25;;;;;;;;;;8324445;28;20469;-70
2021/03/10 13:21:58;;;;;;;13.40;6.85;;;;;;;;;;8326170;28;20052;-70
2021/03/10 13:26:03;;;;;;;16.13;7.03;;;;;;;;;;8324877;28;20066;-69
2021/03/10 13:30:16;;;;;;;15.40;8.77;;;;;;;;;;8325216;28;20327;-69
2021/03/10 13:34:21;;;;;;;15.43;8.15;;;;;;;;;;8323753;28;20048;-69
2021/03/10 13:38:26;;;;;;;62.58;23.08;;;;;;;;;;8326830;28;20385;-69
2021/03/10 13:42:30;;;;;;;17.50;9.13;;;;;;;;;;8327540;28;20577;-69
2021/03/10 13:46:41;;;;;;;35.30;18.45;;;;;;;;;;8323424;28;20479;-69
2021/03/10 13:50:47;;;;;;;55.47;24.58;;;;;;;;;;8322365;28;20500;-69
2021/03/10 13:54:53;;;;;;;20.88;12.38;;;;;;;;;;8323952;28;20405;-69
2021/03/10 13:58:58;;;;;;;122.13;44.15;;;;;;;;;;8325483;28;20378;-69
2021/03/10 14:03:04;;;;;;;23.85;12.32;;;;;;;;;;8323620;28;20412;-69
2021/03/10 14:07:08;;;;;;;92.65;55.03;;;;;;;;;;8322139;28;20354;-69
2021/03/10 14:11:15;;;;;;;22.85;11.88;;;;;;;;;;8322297;28;20351;-69
2021/03/10 14:15:20;;;;;;;22.70;9.65;;;;;;;;;;8324744;28;20044;-70
2021/03/10 14:19:24;;;;;;;27.73;14.45;;;;;;;;;;8322775;28;20451;-69
2021/03/10 14:23:28;;;;;;;36.17;18.45;;;;;;;;;;8327607;28;20455;-69
2021/03/10 14:27:33;;;;;;;23.25;11.20;;;;;;;;;;8330116;28;20056;-69
2021/03/10 14:31:38;;;;;;;15.18;8.40;;;;;;;;;;8330088;28;20394;-69
2021/03/10 14:35:43;;;;;;;22.80;10.57;;;;;;;;;;8329426;28;20359;-69
2021/03/10 14:39:48;;;;;;;15.32;9.57;;;;;;;;;;8329085;28;20066;-69
2021/03/10 14:43:53;;;;;;;18.25;9.13;;;;;;;;;;8330224;28;20483;-69
2021/03/10 14:48:01;;;;;;;15.65;8.52;;;;;;;;;;8327927;28;20074;-69
2021/03/10 14:52:06;;;;;;;18.98;10.40;;;;;;;;;;8328251;28;20454;-69
2021/03/10 14:56:10;;;;;;;19.98;9.18;;;;;;;;;;8326544;28;20070;-69
2021/03/10 15:00:16;;;;;;;30.20;16.00;;;;;;;;;;8327091;28;20409;-69
2021/03/10 15:04:20;;;;;;;16.95;9.20;;;;;;;;;;8328663;28;20462;-69
2021/03/10 15:08:25;;;;;;;29.38;19.17;;;;;;;;;;8328022;28;20055;-69
2021/03/10 15:12:30;;;;;;;22.98;12.52;;;;;;;;;;8327139;28;20501;-70
2021/03/10 15:16:35;;;;;;;26.98;12.50;;;;;;;;;;8330460;28;20481;-69
2021/03/10 15:20:40;;;;;;;59.50;27.52;;;;;;;;;;8328650;28;20396;-69
2021/03/10 15:24:44;;;;;;;55.47;23.45;;;;;;;;;;8328496;28;20052;-68
2021/03/10 15:28:49;;;;;;;35.30;15.52;;;;;;;;;;8325072;28;20309;-68
2021/03/10 15:32:54;;;;;;;39.67;17.90;;;;;;;;;;8326101;28;20385;-69
2021/03/10 15:37:03;;;;;;;97.25;36.53;;;;;;;;;;8326341;28;20067;-69
2021/03/10 15:41:08;;;;;;;109.85;42.40;;;;;;;;;;8309055;28;20469;-69
2021/03/10 15:45:13;;;;;;;109.07;39.80;;;;;;;;;;8328831;28;20067;-70
2021/03/10 15:49:17;;;;;;;30.42;12.25;;;;;;;;;;8325427;28;20056;-69
2021/03/10 15:53:22;;;;;;;42.28;18.58;;;;;;;;;;8326641;28;20470;-69
2021/03/10 15:57:29;;;;;;;37.58;14.98;;;;;;;;;;8327499;28;20450;-70
2021/03/10 16:01:33;;;;;;;37.38;16.13;;;;;;;;;;8326597;28;20409;-69
2021/03/10 16:05:39;;;;;;;48.42;16.85;;;;;;;;;;8324485;28;20044;-68
2021/03/10 16:09:43;;;;;;;123.55;42.67;;;;;;;;;;8325817;28;20482;-68
2021/03/10 16:13:48;;;;;;;33.25;16.25;;;;;;;;;;8327467;28;20381;-68
2021/03/10 16:17:52;;;;;;;175.10;60.58;;;;;;;;;;8326155;28;20044;-68
2021/03/10 16:21:57;;;;;;;67.43;26.90;;;;;;;;;;8325206;28;20470;-68
2021/03/10 16:26:02;;;;;;;88.10;36.50;;;;;;;;;;8307016;28;20048;-69
2021/03/10 16:30:17;;;;;;;33.33;14.88;;;;;;;;;;8324711;28;20454;-69
2021/03/10 16:34:22;;;;;;;46.28;16.77;;;;;;;;;;8323868;28;20462;-69
2021/03/10 16:38:26;;;;;;;50.88;19.27;;;;;;;;;;8324442;28;20074;-69
2021/03/10 16:42:32;;;;;;;41.90;17.42;;;;;;;;;;8324418;28;20344;-69
2021/03/10 16:46:36;;;;;;;22.73;11.63;;;;;;;;;;8324011;28;20368;-68
2021/03/10 16:50:41;;;;;;;23.58;11.18;;;;;;;;;;8322560;28;20752;-68
2021/03/10 16:54:46;;;;;;;26.58;10.82;;;;;;;;;;8323368;28;20397;-68
2021/03/10 16:58:53;;;;;;;22.13;10.18;;;;;;;;;;8324947;28;20347;-68
2021/03/10 17:02:58;;;;;;;21.70;9.95;;;;;;;;;;8323950;28;20508;-67
2021/03/10 17:07:03;;;;;;;23.38;10.68;;;;;;;;;;8324064;28;20070;-67
2021/03/10 17:11:07;;;;;;;24.05;10.82;;;;;;;;;;8323515;28;20083;-68
2021/03/10 17:15:11;;;;;;;23.98;11.00;;;;;;;;;;8323863;28;20478;-68
2021/03/10 17:19:19;;;;;;;23.48;10.13;;;;;;;;;;8323902;28;20304;-67
2021/03/10 17:23:23;;;;;;;25.08;11.75;;;;;;;;;;8323876;28;20048;-67
2021/03/10 17:27:28;;;;;;;44.75;18.38;;;;;;;;;;8322621;28;20056;-66
2021/03/10 17:31:33;;;;;;;62.70;26.10;;;;;;;;;;8323845;28;20386;-66
2021/03/10 17:35:38;;;;;;;45.75;20.48;;;;;;;;;;8323091;28;20048;-67
2021/03/10 17:39:45;;;;;;;64.30;20.38;;;;;;;;;;8322838;28;20079;-66
2021/03/10 17:43:49;;;;;;;51.70;17.73;;;;;;;;;;8323483;28;20486;-66
2021/03/10 17:47:54;;;;;;;37.83;16.83;;;;;;;;;;8323231;28;20479;-66
2021/03/10 17:51:58;;;;;;;41.03;17.52;;;;;;;;;;8322437;28;20450;-66
2021/03/10 17:56:04;;;;;;;86.35;32.80;;;;;;;;;;8323424;28;20477;-66
2021/03/10 18:00:10;;;;;;;75.43;27.63;;;;;;;;;;8329627;28;20455;-67
2021/03/10 18:04:15;;;;;;;53.03;19.65;;;;;;;;;;8329443;28;20357;-66
2021/03/10 18:08:21;;;;;;;38.58;16.50;;;;;;;;;;8328819;28;20048;-66
2021/03/10 18:12:25;;;;;;;49.30;16.15;;;;;;;;;;8329469;28;20052;-65
2021/03/10 18:16:33;;;;;;;33.03;14.90;;;;;;;;;;8329511;28;20378;-65
2021/03/10 18:20:42;;;;;;;37.75;15.07;;;;;;;;;;8328627;28;20051;-67
2021/03/10 18:24:47;;;;;;;29.33;14.25;;;;;;;;;;8329714;28;20509;-66
2021/03/10 18:28:52;;;;;;;34.15;15.77;;;;;;;;;;8329289;28;20382;-65
2021/03/10 18:32:56;;;;;;;29.88;12.15;;;;;;;;;;8326814;28;20458;-66
2021/03/10 18:37:01;;;;;;;26.58;11.60;;;;;;;;;;8327895;28;20488;-65
2021/03/10 18:41:05;;;;;;;33.67;11.95;;;;;;;;;;8327918;28;20435;-67
2021/03/10 18:45:13;;;;;;;30.20;10.60;;;;;;;;;;8327502;28;20457;-65
2021/03/10 18:49:17;;;;;;;32.38;12.43;;;;;;;;;;8326892;28;20438;-65
2021/03/10 18:53:22;;;;;;;32.53;12.90;;;;;;;;;;8327456;28;20365;-65
2021/03/10 18:57:27;;;;;;;29.83;12.77;;;;;;;;;;8329279;28;20371;-65
2021/03/10 19:01:34;;;;;;;39.03;15.20;;;;;;;;;;8328481;28;20458;-66
2021/03/10 19:05:38;;;;;;;42.67;16.63;;;;;;;;;;8328297;28;20382;-65
2021/03/10 19:09:46;;;;;;;90.03;21.42;;;;;;;;;;8326431;28;20451;-65
2021/03/10 19:13:52;;;;;;;62.92;23.25;;;;;;;;;;8327124;28;20406;-65
2021/03/10 19:17:56;;;;;;;53.25;19.45;;;;;;;;;;8327459;28;20354;-64
2021/03/10 19:22:01;;;;;;;44.97;16.80;;;;;;;;;;8327280;28;20382;-64
2021/03/10 19:26:06;;;;;;;55.10;19.35;;;;;;;;;;8327255;28;20456;-65
2021/03/10 19:30:18;;;;;;;50.45;20.88;;;;;;;;;;8326851;28;20408;-65
2021/03/10 19:34:27;;;;;;;47.75;19.58;;;;;;;;;;8325895;28;20473;-65
2021/03/10 19:38:33;;;;;;;57.20;20.45;;;;;;;;;;8324791;28;20493;-67
2021/03/10 19:42:45;;;;;;;96.60;31.38;;;;;;;;;;8306646;28;20052;-65
2021/03/10 19:46:49;;;;;;;132.32;35.90;;;;;;;;;;8323720;28;20400;-65
2021/03/10 19:50:54;;;;;;;135.00;43.80;;;;;;;;;;8326352;28;20488;-66
2021/03/10 19:54:59;;;;;;;168.25;49.15;;;;;;;;;;8324269;28;20450;-65
2021/03/10 19:59:04;;;;;;;97.13;35.17;;;;;;;;;;8325479;28;20074;-67
2021/03/10 20:03:09;;;;;;;95.88;30.70;;;;;;;;;;8326278;28;20052;-65
2021/03/10 20:07:15;;;;;;;96.15;31.85;;;;;;;;;;8325714;28;20366;-66
2021/03/10 20:11:20;;;;;;;95.82;31.48;;;;;;;;;;8324434;28;20497;-65
2021/03/10 20:15:24;;;;;;;130.43;45.85;;;;;;;;;;8325213;28;20378;-65
2021/03/10 20:19:30;;;;;;;106.32;38.80;;;;;;;;;;8323357;28;20463;-65
2021/03/10 20:23:35;;;;;;;137.68;43.17;;;;;;;;;;8325709;28;20428;-65
2021/03/10 20:27:40;;;;;;;105.05;36.58;;;;;;;;;;8324920;28;20397;-66
2021/03/10 20:31:45;;;;;;;77.68;28.92;;;;;;;;;;8326203;28;20048;-66
2021/03/10 20:35:51;;;;;;;92.55;30.85;;;;;;;;;;8325360;28;20040;-67
2021/03/10 20:39:55;;;;;;;117.20;40.83;;;;;;;;;;8325948;28;20441;-66
2021/03/10 20:44:00;;;;;;;159.70;48.55;;;;;;;;;;8324189;28;20384;-65
2021/03/10 20:48:05;;;;;;;157.77;50.92;;;;;;;;;;8324347;28;20348;-65
2021/03/10 20:52:27;;;;;;;157.07;53.17;;;;;;;;;;8325965;28;20048;-66
2021/03/10 20:56:31;;;;;;;148.55;47.95;;;;;;;;;;8323794;28;20056;-65
2021/03/10 21:00:37;;;;;;;146.73;48.33;;;;;;;;;;8323752;28;20374;-65
2021/03/10 21:04:42;;;;;;;138.10;47.97;;;;;;;;;;8324812;28;20469;-65
2021/03/10 21:08:47;;;;;;;127.68;45.13;;;;;;;;;;8323727;28;20351;-66
2021/03/10 21:12:52;;;;;;;132.20;45.40;;;;;;;;;;8323425;28;20478;-65
2021/03/10 21:16:56;;;;;;;149.55;45.40;;;;;;;;;;8322994;28;20370;-66
2021/03/10 21:21:01;;;;;;;129.60;41.65;;;;;;;;;;8323689;28;20424;-66
2021/03/10 21:25:07;;;;;;;125.97;39.00;;;;;;;;;;8322020;28;20450;-66
2021/03/10 21:29:13;;;;;;;120.28;38.58;;;;;;;;;;8324343;28;20464;-66
2021/03/10 21:33:20;;;;;;;135.07;44.30;;;;;;;;;;8322932;28;20044;-66
2021/03/10 21:37:24;;;;;;;128.77;40.20;;;;;;;;;;8323050;28;20475;-66
2021/03/10 21:41:28;;;;;;;121.53;39.58;;;;;;;;;;8324722;28;20711;-66
2021/03/10 21:45:36;;;;;;;114.80;37.65;;;;;;;;;;8324793;28;20416;-65
2021/03/10 21:49:43;;;;;;;106.22;36.88;;;;;;;;;;8322228;28;20455;-66
2021/03/10 21:53:48;;;;;;;100.35;32.72;;;;;;;;;;8322632;28;20358;-67
2021/03/10 21:57:52;;;;;;;96.35;33.95;;;;;;;;;;8305227;28;20399;-66
2021/03/10 22:01:58;;;;;;;96.32;31.17;;;;;;;;;;8322746;28;20079;-66
2021/03/10 22:06:02;;;;;;;94.95;34.55;;;;;;;;;;8323061;28;20055;-66
2021/03/10 22:10:08;;;;;;;119.00;36.78;;;;;;;;;;8322674;28;20087;-65
2021/03/10 22:14:12;;;;;;;95.50;35.17;;;;;;;;;;8322342;28;20495;-66
2021/03/10 22:18:18;;;;;;;109.05;36.67;;;;;;;;;;8323327;28;20347;-65
2021/03/10 22:22:22;;;;;;;118.55;37.40;;;;;;;;;;8323019;28;20469;-65
2021/03/10 22:26:28;;;;;;;112.03;35.65;;;;;;;;;;8323848;28;20492;-65
2021/03/10 22:30:35;;;;;;;67.95;24.13;;;;;;;;;;8322027;28;20457;-65
2021/03/10 22:34:48;;;;;;;77.25;27.13;;;;;;;;;;8322608;28;20471;-67
2021/03/10 22:38:54;;;;;;;96.90;30.02;;;;;;;;;;8322425;28;20048;-65
2021/03/10 22:42:58;;;;;;;83.70;28.35;;;;;;;;;;8324472;28;20371;-65
2021/03/10 22:47:03;;;;;;;87.78;27.60;;;;;;;;;;8326808;28;20454;-67
2021/03/10 22:51:07;;;;;;;61.63;23.75;;;;;;;;;;8328452;28;20482;-66
2021/03/10 22:55:13;;;;;;;54.55;21.98;;;;;;;;;;8328213;28;20056;-66
2021/03/10 22:59:18;;;;;;;57.88;20.95;;;;;;;;;;8327663;28;20366;-65
2021/03/10 23:03:22;;;;;;;52.50;18.55;;;;;;;;;;8327676;28;20480;-65
2021/03/10 23:07:27;;;;;;;61.00;20.95;;;;;;;;;;8326763;28;20460;-65
2021/03/10 23:11:33;;;;;;;76.40;22.70;;;;;;;;;;8327166;28;20087;-65
2021/03/10 23:15:37;;;;;;;61.40;21.75;;;;;;;;;;8328796;28;20381;-65
2021/03/10 23:19:42;;;;;;;62.13;18.10;;;;;;;;;;8327409;28;20458;-65
2021/03/10 23:23:47;;;;;;;66.28;21.38;;;;;;;;;;8328282;28;20388;-65
2021/03/10 23:27:51;;;;;;;64.03;22.73;;;;;;;;;;8327331;28;20470;-65
2021/03/10 23:31:55;;;;;;;83.70;26.55;;;;;;;;;;8326776;28;20052;-65
2021/03/10 23:36:00;;;;;;;81.85;27.88;;;;;;;;;;8325074;28;20459;-67
2021/03/10 23:40:14;;;;;;;90.43;28.88;;;;;;;;;;8328261;28;20501;-65
2021/03/10 23:44:18;;;;;;;95.25;28.98;;;;;;;;;;8325876;28;20048;-65
2021/03/10 23:48:22;;;;;;;96.28;32.90;;;;;;;;;;8325850;28;20048;-65
2021/03/10 23:52:27;;;;;;;106.55;32.88;;;;;;;;;;8325406;28;20528;-65
2021/03/10 23:56:32;;;;;;;133.02;41.30;;;;;;;;;;8325170;28;20078;-65
